Route Details

Aircraft Information
Group: North America Fleet
Types: B738, B752, B762, B763
Route Data
Distance: 1204nm
Duration: 3h 14m
Origin METAR: KPHX 010551Z 24004KT 10SM FEW090 FEW250 10/06 A3002 RMK AO2 SLP159 T01000061 10172 20100 53010
Dest. METAR: KRFD 010454Z 19004KT 10SM CLR M18/M22 A3037 RMK AO2 SLP303 T11831222
Freight Data
(for Feb 1, 2023)
Load Factor:
77%
Manifested Cargo: 68,617lbs
Financial History
Total Freight: 393,904lbs
Average Load: 0lbs/flt
Fuel Used: 189,979lbs
Avg. Fuel Used: 0lbs/flt
Fuel Expense: $118,259
Avg. Fuel Expense: $0
Avg. Fuel Cost: $0/lbs
Total Gross Income: $697,353
Pilot Pay: $1,393
Total Expenses: $88,938
Total Revenue: $486,361
Average Revenue: $0

Capitol Logistics 370




KPHX
Phoenix Sky Harbor International Airport
Phoenix, Arizona
KRFD
Chicago/Rockford International Airport
Rockford, Illinois

Activity Log

Date Flight Route Aircraft Duration
11/30/2022 CPX370 FORPE1 ABQ DCT KA33U DCT KK48A DCT KP63G DCT IOW DCT RFD DCT B762 2h 50m
06/21/2022 CPX7485 MRBIL1 JARPA RSK GLD J146 LNK DBQ B752 2h 52m
02/02/2022 CPX7485 BROAK1 MAXXO ACH J231 LBL SLN LMN IOW RFD B763 2h 48m
06/03/2021 CPX7485 MRBIL1 JARPA RSK KD51W KP66G IOW PLL A30F 3h 06m
06/21/2020 CPX231 BROAK1 MAXXO ACH J231 LBL J19 ICT J26 IRK J232 MZV PLL B763 3h 00m
01/07/2020 CPX231 SJN9 ABQ J18 SLN J96 IRK J26 BDF J105 VORIN B763 2h 52m
05/10/2019 CPX231 FTHLS5 ABQ FTI J18 MZV B763 2h 50m